createdAt,value
2018-09-11T00:00:04.555Z,0.00
2018-09-11T00:01:04.548Z,0.00
2018-09-11T00:02:04.571Z,0.00
2018-09-11T00:03:04.559Z,0.00
2018-09-11T00:04:04.608Z,0.00
2018-09-11T00:05:04.564Z,0.00
2018-09-11T00:06:04.558Z,0.00
2018-09-11T00:07:04.691Z,0.00
2018-09-11T00:08:04.572Z,0.00
2018-09-11T00:09:04.576Z,0.00
2018-09-11T00:10:04.580Z,0.00
2018-09-11T00:11:04.581Z,0.00
2018-09-11T00:12:04.587Z,0.00
2018-09-11T00:13:04.591Z,0.00
2018-09-11T00:14:04.588Z,0.00
2018-09-11T00:15:04.592Z,0.00
2018-09-11T00:16:04.622Z,0.00
2018-09-11T00:17:04.626Z,0.00
2018-09-11T00:18:04.601Z,0.00
2018-09-11T00:19:04.610Z,0.00
2018-09-11T00:20:04.616Z,0.00
2018-09-11T00:21:04.633Z,0.00
2018-09-11T00:22:04.619Z,0.00
2018-09-11T00:23:04.625Z,0.00
2018-09-11T00:24:04.628Z,0.00
2018-09-11T00:25:04.630Z,0.00
2018-09-11T00:26:04.649Z,0.00
2018-09-11T00:27:04.649Z,0.00
2018-09-11T00:28:04.633Z,0.00
2018-09-11T00:29:04.642Z,0.00
2018-09-11T00:30:04.649Z,0.00
2018-09-11T00:31:04.646Z,0.00
2018-09-11T00:32:04.644Z,0.00
2018-09-11T00:33:04.656Z,0.00
2018-09-11T00:34:04.676Z,0.00
2018-09-11T00:35:04.659Z,0.00
2018-09-11T00:36:04.657Z,0.00
2018-09-11T00:37:04.665Z,0.00
2018-09-11T00:38:04.666Z,0.00
2018-09-11T00:39:04.671Z,0.00
2018-09-11T00:40:04.676Z,0.00
2018-09-11T00:41:04.688Z,0.00
2018-09-11T00:42:04.835Z,0.00
2018-09-11T00:43:04.688Z,0.00
2018-09-11T00:44:04.685Z,0.00
2018-09-11T00:45:04.775Z,0.00
2018-09-11T00:46:04.753Z,0.00
2018-09-11T00:47:04.689Z,0.00
2018-09-11T00:48:04.751Z,0.00
2018-09-11T00:49:04.699Z,0.00
2018-09-11T00:50:04.708Z,0.00
2018-09-11T00:51:04.733Z,0.00
2018-09-11T00:52:04.725Z,0.00
2018-09-11T00:53:04.712Z,0.00
2018-09-11T00:54:04.713Z,0.00
2018-09-11T00:55:04.735Z,0.00
2018-09-11T00:56:04.723Z,0.00
2018-09-11T00:57:04.733Z,0.00
2018-09-11T00:58:04.726Z,0.00
2018-09-11T00:59:04.726Z,0.00
2018-09-11T01:00:04.733Z,0.00
2018-09-11T01:01:04.766Z,0.00
2018-09-11T01:02:04.735Z,0.00
2018-09-11T01:03:04.748Z,0.00
2018-09-11T01:04:04.771Z,0.00
2018-09-11T01:05:04.758Z,0.00
2018-09-11T01:06:04.745Z,0.00
2018-09-11T01:07:04.748Z,0.00
2018-09-11T01:08:04.785Z,0.00
2018-09-11T01:09:04.763Z,0.00
2018-09-11T01:10:04.806Z,0.00
2018-09-11T01:11:04.764Z,0.00
2018-09-11T01:12:04.798Z,0.00
2018-09-11T01:13:04.808Z,0.00
2018-09-11T01:14:04.794Z,0.00
2018-09-11T01:15:04.775Z,0.00
2018-09-11T01:16:04.789Z,0.00
2018-09-11T01:17:04.851Z,0.00
2018-09-11T01:18:04.950Z,0.00
2018-09-11T01:19:04.783Z,0.00
2018-09-11T01:20:04.812Z,0.00
2018-09-11T01:21:04.815Z,0.00
2018-09-11T01:22:04.840Z,0.00
2018-09-11T01:23:04.796Z,0.00
2018-09-11T01:24:04.815Z,0.00
2018-09-11T01:25:04.804Z,0.00
2018-09-11T01:26:04.921Z,0.00
2018-09-11T01:27:04.823Z,0.00
2018-09-11T01:28:04.818Z,0.00
2018-09-11T01:29:04.814Z,0.00
2018-09-11T01:30:04.858Z,0.00
2018-09-11T01:31:04.832Z,0.00
2018-09-11T01:32:04.847Z,0.00
2018-09-11T01:33:04.838Z,0.00
2018-09-11T01:34:04.821Z,0.00
2018-09-11T01:35:04.822Z,0.00
2018-09-11T01:36:04.851Z,0.00
2018-09-11T01:37:04.850Z,0.00
2018-09-11T01:38:04.836Z,0.00
2018-09-11T01:39:04.866Z,0.00
2018-09-11T01:40:04.844Z,0.00
2018-09-11T01:41:04.868Z,0.00
2018-09-11T01:42:04.860Z,0.00
2018-09-11T01:43:04.859Z,0.00
2018-09-11T01:44:04.888Z,0.00
2018-09-11T01:45:04.844Z,0.00
2018-09-11T01:46:04.906Z,0.00
2018-09-11T01:47:04.856Z,0.00
2018-09-11T01:48:04.864Z,0.00
2018-09-11T01:49:04.889Z,0.00
2018-09-11T01:50:04.866Z,0.00
2018-09-11T01:51:04.891Z,0.00
2018-09-11T01:52:04.897Z,0.00
2018-09-11T01:53:04.906Z,0.00
2018-09-11T01:54:04.981Z,0.00
2018-09-11T01:55:04.878Z,0.00
2018-09-11T01:56:04.931Z,0.00
2018-09-11T01:57:04.913Z,0.00
2018-09-11T01:58:04.918Z,0.00
2018-09-11T01:59:04.906Z,0.00
2018-09-11T02:00:04.894Z,0.00
2018-09-11T02:01:04.896Z,0.00
2018-09-11T02:02:04.924Z,0.00
2018-09-11T02:03:04.898Z,0.00
2018-09-11T02:04:04.973Z,0.00
2018-09-11T02:05:04.926Z,0.00
2018-09-11T02:06:04.904Z,0.00
2018-09-11T02:07:04.953Z,0.00
2018-09-11T02:08:04.908Z,0.00
2018-09-11T02:09:04.946Z,0.00
2018-09-11T02:10:04.950Z,0.00
2018-09-11T02:11:04.915Z,0.00
2018-09-11T02:12:04.912Z,0.00
2018-09-11T02:13:04.911Z,0.00
2018-09-11T02:14:04.923Z,0.00
2018-09-11T02:15:04.924Z,0.00
2018-09-11T02:16:04.937Z,0.00
2018-09-11T02:17:04.932Z,0.00
2018-09-11T02:18:04.968Z,0.00
2018-09-11T02:19:04.934Z,0.00
2018-09-11T02:20:04.966Z,0.00
2018-09-11T02:21:04.940Z,0.00
2018-09-11T02:22:05.031Z,0.00
2018-09-11T02:23:04.945Z,0.00
2018-09-11T02:24:04.970Z,0.00
2018-09-11T02:25:04.949Z,0.00
2018-09-11T02:26:04.956Z,0.00
2018-09-11T02:27:04.985Z,0.00
2018-09-11T02:28:04.947Z,0.00
2018-09-11T02:29:04.959Z,0.00
2018-09-11T02:30:04.963Z,0.00
2018-09-11T02:31:04.954Z,0.00
2018-09-11T02:32:04.960Z,0.00
2018-09-11T02:33:04.965Z,0.00
2018-09-11T02:34:04.965Z,0.00
2018-09-11T02:35:04.964Z,0.00
2018-09-11T02:36:04.992Z,0.00
2018-09-11T02:37:04.969Z,0.00
2018-09-11T02:38:04.978Z,0.00
2018-09-11T02:39:04.968Z,0.00
2018-09-11T02:40:04.976Z,0.00
2018-09-11T02:41:04.980Z,0.00
2018-09-11T02:42:04.976Z,0.00
2018-09-11T02:43:04.985Z,0.00
2018-09-11T02:44:04.988Z,0.00
2018-09-11T02:45:04.990Z,0.00
2018-09-11T02:46:04.997Z,0.00
2018-09-11T02:47:04.993Z,0.00
2018-09-11T02:48:05.021Z,0.00
2018-09-11T02:49:05.014Z,0.00
2018-09-11T02:50:04.992Z,0.00
2018-09-11T02:51:04.998Z,0.00
2018-09-11T02:52:04.999Z,0.00
2018-09-11T02:53:05.036Z,0.00
2018-09-11T02:54:04.999Z,0.00
2018-09-11T02:55:05.008Z,0.00
2018-09-11T03:14:18.113Z,0.00
2018-09-11T03:15:18.073Z,0.00
2018-09-11T03:16:18.066Z,0.00
2018-09-11T03:17:18.102Z,0.00
2018-09-11T03:18:18.062Z,0.00
2018-09-11T03:19:18.064Z,0.00
2018-09-11T03:20:18.063Z,0.00
2018-09-11T03:21:18.061Z,0.00
2018-09-11T03:22:18.059Z,0.00
2018-09-11T03:23:18.060Z,0.00
2018-09-11T03:24:18.061Z,0.00
2018-09-11T03:25:18.056Z,0.00
2018-09-11T03:26:18.060Z,0.00
2018-09-11T03:27:18.068Z,0.00
2018-09-11T03:28:18.058Z,0.00
2018-09-11T03:29:18.070Z,0.00
2018-09-11T03:30:18.108Z,0.00
2018-09-11T03:31:18.089Z,0.00
2018-09-11T03:32:18.069Z,0.00
2018-09-11T03:33:18.075Z,0.00
2018-09-11T03:34:18.066Z,0.00
2018-09-11T03:35:18.082Z,0.00
2018-09-11T03:36:18.073Z,0.00
2018-09-11T03:37:18.084Z,0.00
2018-09-11T03:38:18.083Z,0.00
2018-09-11T03:39:18.092Z,0.00
2018-09-11T03:40:18.084Z,0.00
2018-09-11T03:41:18.081Z,0.00
2018-09-11T03:42:18.085Z,0.00
2018-09-11T03:43:18.090Z,0.00
2018-09-11T03:44:18.141Z,0.00
2018-09-11T03:45:18.083Z,0.00
2018-09-11T03:46:18.104Z,0.00
2018-09-11T03:47:18.091Z,0.00
2018-09-11T03:48:18.101Z,0.00
2018-09-11T03:49:18.090Z,0.00
2018-09-11T03:50:18.098Z,0.00
2018-09-11T03:51:18.092Z,0.00
2018-09-11T03:52:18.108Z,0.00
2018-09-11T03:53:18.095Z,0.00
2018-09-11T03:54:18.101Z,0.00
2018-09-11T03:55:18.118Z,0.00
2018-09-11T03:56:18.133Z,0.00
2018-09-11T03:57:18.110Z,0.00
2018-09-11T03:58:18.284Z,0.00
2018-09-11T03:59:18.220Z,0.00
2018-09-11T04:00:18.119Z,0.00
2018-09-11T04:01:18.135Z,0.00
2018-09-11T04:02:18.143Z,0.00
2018-09-11T04:03:18.120Z,0.00
2018-09-11T04:04:18.140Z,0.00
2018-09-11T04:05:18.170Z,0.00
2018-09-11T04:06:18.174Z,0.00
2018-09-11T04:07:18.139Z,0.00
2018-09-11T04:08:18.173Z,0.00
2018-09-11T04:09:18.150Z,0.00
2018-09-11T04:10:18.152Z,0.00
2018-09-11T04:11:18.123Z,0.00
2018-09-11T04:12:18.139Z,0.00
2018-09-11T04:13:18.132Z,0.00
2018-09-11T04:14:18.192Z,0.00
2018-09-11T04:15:18.133Z,0.00
2018-09-11T04:16:18.138Z,0.00
2018-09-11T04:17:18.160Z,0.00
2018-09-11T04:18:18.170Z,0.00
2018-09-11T04:19:18.257Z,0.00
2018-09-11T04:20:18.160Z,0.00
2018-09-11T04:21:18.175Z,0.00
2018-09-11T04:22:18.176Z,0.00
2018-09-11T04:23:18.156Z,0.00
2018-09-11T04:24:18.175Z,0.00
2018-09-11T04:25:18.445Z,0.00
2018-09-11T04:26:18.209Z,0.00
2018-09-11T04:27:18.207Z,0.00
2018-09-11T04:28:18.159Z,0.00
2018-09-11T04:29:18.196Z,0.00
2018-09-11T04:30:18.246Z,0.00
2018-09-11T04:31:18.204Z,4.00
2018-09-11T04:32:18.358Z,4.00
2018-09-11T04:33:18.178Z,0.00
2018-09-11T04:34:18.205Z,4.00
2018-09-11T04:35:18.212Z,4.00
2018-09-11T04:36:18.194Z,4.00
2018-09-11T04:37:18.197Z,8.00
2018-09-11T04:38:18.174Z,4.00
2018-09-11T04:39:18.204Z,4.00
2018-09-11T04:40:18.198Z,12.00
2018-09-11T04:41:18.216Z,12.00
2018-09-11T04:42:18.210Z,12.00
2018-09-11T04:43:18.222Z,16.00
2018-09-11T04:44:18.296Z,16.00
2018-09-11T04:45:18.184Z,20.00
2018-09-11T04:46:18.192Z,20.00
2018-09-11T04:47:18.228Z,28.00
2018-09-11T04:48:18.240Z,32.00
2018-09-11T04:49:18.194Z,32.00
2018-09-11T04:50:18.203Z,36.00
2018-09-11T04:51:18.194Z,44.00
2018-09-11T04:52:18.229Z,52.00
2018-09-11T04:53:18.225Z,60.00
2018-09-11T04:54:18.232Z,68.00
2018-09-11T04:55:18.273Z,76.00
2018-09-11T04:56:18.200Z,88.00
2018-09-11T04:57:18.198Z,96.00
2018-09-11T04:58:18.210Z,108.00
2018-09-11T04:59:18.228Z,116.00
2018-09-11T05:00:18.218Z,124.00
2018-09-11T05:01:18.214Z,140.00
2018-09-11T05:02:18.217Z,152.00
2018-09-11T05:03:18.235Z,172.00
2018-09-11T05:04:18.221Z,184.00
2018-09-11T05:05:18.221Z,200.00
2018-09-11T05:06:18.223Z,220.00
2018-09-11T05:07:18.223Z,240.00
2018-09-11T05:08:18.227Z,260.00
2018-09-11T05:09:18.219Z,292.00
2018-09-11T05:10:18.224Z,324.00
2018-09-11T05:11:18.290Z,356.00
2018-09-11T05:12:18.253Z,376.00
2018-09-11T05:13:18.251Z,392.00
2018-09-11T05:14:18.230Z,408.00
2018-09-11T05:15:18.269Z,464.00
2018-09-11T05:16:18.254Z,532.00
2018-09-11T05:17:18.268Z,620.00
2018-09-11T05:18:18.244Z,684.00
2018-09-11T05:19:18.341Z,744.00
2018-09-11T05:20:18.245Z,824.00
2018-09-11T05:21:18.255Z,940.00
2018-09-11T05:22:18.257Z,1052.00
2018-09-11T05:23:18.261Z,1188.00
2018-09-11T05:24:18.279Z,1276.00
2018-09-11T05:25:18.248Z,1344.00
2018-09-11T05:26:18.247Z,1568.00
2018-09-11T05:27:18.302Z,1916.00
2018-09-11T05:28:18.269Z,2444.00
2018-09-11T05:29:18.260Z,6512.00
2018-09-11T05:30:18.285Z,12512.00
2018-09-11T05:31:18.297Z,12928.00
2018-09-11T05:32:18.284Z,6124.00
2018-09-11T05:33:18.287Z,3048.00
2018-09-11T05:34:18.266Z,2844.00
2018-09-11T05:35:18.302Z,4332.00
2018-09-11T05:36:18.271Z,11812.00
2018-09-11T05:37:18.288Z,24384.00
2018-09-11T05:38:18.280Z,29440.00
2018-09-11T05:39:18.286Z,29888.00
2018-09-11T05:40:18.285Z,28992.00
2018-09-11T05:41:18.310Z,28480.00
2018-09-11T05:42:18.323Z,18144.00
2018-09-11T05:43:18.295Z,5780.00
2018-09-11T05:44:18.308Z,2816.00
2018-09-11T05:45:18.308Z,2320.00
2018-09-11T05:46:18.319Z,2056.00
2018-09-11T05:47:18.325Z,1928.00
2018-09-11T05:48:18.339Z,1848.00
2018-09-11T05:49:18.344Z,1772.00
2018-09-11T05:50:18.327Z,1768.00
2018-09-11T05:51:18.333Z,1692.00
2018-09-11T05:52:18.337Z,1588.00
2018-09-11T05:53:18.336Z,1564.00
2018-09-11T05:54:18.340Z,1556.00
2018-09-11T05:55:18.355Z,1544.00
2018-09-11T05:56:18.348Z,1528.00
2018-09-11T05:57:18.355Z,1520.00
2018-09-11T05:58:18.397Z,1520.00
2018-09-11T05:59:18.365Z,1520.00
2018-09-11T06:00:18.364Z,1516.00
2018-09-11T06:01:18.378Z,1500.00
2018-09-11T06:02:18.383Z,1484.00
2018-09-11T06:03:18.377Z,1472.00
2018-09-11T06:04:18.378Z,1452.00
2018-09-11T06:05:18.382Z,1404.00
2018-09-11T06:06:18.379Z,1368.00
2018-09-11T06:07:18.388Z,1328.00
2018-09-11T06:08:18.391Z,1292.00
2018-09-11T06:09:18.389Z,1284.00
2018-09-11T06:10:18.402Z,1268.00
2018-09-11T06:11:18.399Z,1244.00
2018-09-11T06:12:18.414Z,1252.00
2018-09-11T06:13:18.420Z,1272.00
2018-09-11T06:14:18.408Z,1296.00
2018-09-11T06:15:18.417Z,1332.00
2018-09-11T06:16:18.429Z,1332.00
2018-09-11T06:17:18.440Z,1324.00
2018-09-11T06:18:18.419Z,1332.00
2018-09-11T06:19:18.430Z,1336.00
2018-09-11T06:20:18.430Z,1312.00
2018-09-11T06:21:18.494Z,1320.00
2018-09-11T06:22:18.431Z,1308.00
2018-09-11T06:23:18.433Z,1292.00
2018-09-11T06:24:18.459Z,1244.00
2018-09-11T06:25:18.442Z,1212.00
2018-09-11T06:26:18.448Z,1220.00
2018-09-11T06:27:18.476Z,1228.00
2018-09-11T06:28:18.461Z,1252.00
2018-09-11T06:29:18.476Z,1276.00
2018-09-11T06:30:18.456Z,1304.00
2018-09-11T06:31:18.476Z,1324.00
2018-09-11T06:32:18.468Z,1372.00
2018-09-11T06:33:18.457Z,1388.00
2018-09-11T06:34:18.466Z,2020.00
2018-09-11T06:35:18.471Z,2048.00
2018-09-11T06:36:18.487Z,2076.00
2018-09-11T06:37:18.476Z,2092.00
2018-09-11T06:38:18.489Z,2100.00
2018-09-11T06:39:18.477Z,2108.00
2018-09-11T06:40:18.486Z,2112.00
2018-09-11T06:41:18.536Z,2112.00
2018-09-11T06:42:18.480Z,2092.00
2018-09-11T06:43:18.493Z,2096.00
2018-09-11T06:44:18.499Z,2076.00
2018-09-11T06:45:18.495Z,2096.00
2018-09-11T06:46:18.531Z,2132.00
2018-09-11T06:47:18.507Z,2112.00
2018-09-11T06:48:18.507Z,2144.00
2018-09-11T06:49:18.509Z,2088.00
2018-09-11T06:50:18.507Z,2072.00
2018-09-11T06:51:18.540Z,2164.00
2018-09-11T06:52:18.534Z,2240.00
2018-09-11T06:53:18.531Z,2324.00
2018-09-11T06:54:18.545Z,2380.00
2018-09-11T06:55:18.531Z,2396.00
2018-09-11T06:56:18.528Z,2432.00
2018-09-11T06:57:18.524Z,2468.00
2018-09-11T06:58:18.527Z,2476.00
2018-09-11T06:59:18.533Z,2496.00
2018-09-11T07:00:18.561Z,2512.00
2018-09-11T07:01:18.535Z,2540.00
2018-09-11T07:02:18.542Z,2556.00
2018-09-11T07:03:18.541Z,2556.00
2018-09-11T07:04:18.560Z,1776.00
2018-09-11T07:05:18.566Z,1780.00
2018-09-11T07:06:18.597Z,1792.00
2018-09-11T07:07:18.555Z,1776.00
2018-09-11T07:08:18.599Z,1764.00
2018-09-11T07:09:18.643Z,1748.00
2018-09-11T07:10:18.597Z,1728.00
2018-09-11T07:11:18.567Z,1680.00
2018-09-11T07:12:18.578Z,1668.00
2018-09-11T07:13:18.564Z,1656.00
2018-09-11T07:14:18.576Z,1632.00
2018-09-11T07:15:18.569Z,1620.00
2018-09-11T07:16:18.593Z,1604.00
2018-09-11T07:17:18.593Z,1660.00
2018-09-11T07:18:18.583Z,1600.00
2018-09-11T07:19:18.588Z,1556.00
2018-09-11T07:20:18.842Z,1548.00
2018-09-11T07:21:18.599Z,1544.00
2018-09-11T07:22:18.596Z,1556.00
2018-09-11T07:23:18.615Z,1568.00
2018-09-11T07:24:18.601Z,1568.00
2018-09-11T07:25:18.597Z,1572.00
2018-09-11T07:26:18.612Z,1572.00
2018-09-11T07:27:18.615Z,1580.00
2018-09-11T07:28:18.627Z,1580.00
2018-09-11T07:29:18.661Z,1564.00
2018-09-11T07:30:18.635Z,1552.00
2018-09-11T07:31:18.672Z,1552.00
2018-09-11T07:32:18.673Z,1528.00
2018-09-11T07:33:18.623Z,1496.00
2018-09-11T07:34:18.623Z,1524.00
2018-09-11T07:35:18.640Z,1536.00
2018-09-11T07:36:18.632Z,1536.00
2018-09-11T07:37:18.635Z,1516.00
2018-09-11T07:38:18.634Z,1532.00
2018-09-11T07:39:18.648Z,1548.00
2018-09-11T07:40:18.644Z,1544.00
2018-09-11T07:41:18.645Z,1508.00
2018-09-11T07:42:18.640Z,1500.00
2018-09-11T07:43:18.648Z,1440.00
2018-09-11T07:44:18.674Z,1444.00
2018-09-11T07:45:18.703Z,1436.00
2018-09-11T07:46:18.654Z,1432.00
2018-09-11T07:47:18.666Z,1416.00
2018-09-11T07:48:18.667Z,1400.00
2018-09-11T07:49:18.690Z,1368.00
2018-09-11T07:50:18.672Z,1376.00
2018-09-11T07:51:18.672Z,1376.00
2018-09-11T07:52:18.710Z,1380.00
2018-09-11T07:53:18.682Z,1368.00
2018-09-11T07:54:18.686Z,1380.00
2018-09-11T07:55:18.688Z,1400.00
2018-09-11T07:56:18.691Z,1384.00
2018-09-11T07:57:18.688Z,1432.00
2018-09-11T07:58:18.690Z,1372.00
2018-09-11T07:59:18.696Z,1376.00
2018-09-11T08:00:18.697Z,1376.00
2018-09-11T08:01:18.702Z,1408.00
2018-09-11T08:02:18.705Z,1392.00
2018-09-11T08:03:18.706Z,1336.00
2018-09-11T08:04:18.810Z,1348.00
2018-09-11T08:05:18.826Z,1328.00
2018-09-11T08:06:18.718Z,1328.00
2018-09-11T08:07:18.715Z,1324.00
2018-09-11T08:08:18.715Z,1308.00
2018-09-11T08:09:18.728Z,1352.00
2018-09-11T08:10:18.720Z,1344.00
2018-09-11T08:11:18.728Z,1356.00
2018-09-11T08:12:18.741Z,1344.00
2018-09-11T08:13:18.734Z,1356.00
2018-09-11T08:14:18.740Z,1360.00
2018-09-11T08:15:18.742Z,1380.00
2018-09-11T08:16:18.818Z,1340.00
2018-09-11T08:17:18.756Z,1348.00
2018-09-11T08:18:18.749Z,1360.00
2018-09-11T08:19:18.779Z,1352.00
2018-09-11T08:20:18.759Z,1328.00
2018-09-11T08:21:18.760Z,1372.00
2018-09-11T08:22:18.758Z,1304.00
2018-09-11T08:23:18.764Z,1296.00
2018-09-11T08:24:18.771Z,1272.00
2018-09-11T08:25:18.766Z,1316.00
2018-09-11T08:26:18.765Z,1264.00
2018-09-11T08:27:18.771Z,1256.00
2018-09-11T08:28:18.788Z,1240.00
2018-09-11T08:29:18.817Z,1224.00
2018-09-11T08:30:18.788Z,1128.00
2018-09-11T08:31:18.794Z,1160.00
2018-09-11T08:32:18.790Z,1180.00
2018-09-11T08:33:18.792Z,1152.00
2018-09-11T08:34:18.807Z,1140.00
2018-09-11T08:35:18.798Z,1124.00
2018-09-11T08:36:18.803Z,1168.00
2018-09-11T08:37:18.803Z,1124.00
2018-09-11T08:38:18.803Z,1216.00
2018-09-11T08:39:18.832Z,1068.00
2018-09-11T08:40:18.814Z,1056.00
2018-09-11T08:41:18.828Z,1064.00
2018-09-11T08:42:18.824Z,1036.00
2018-09-11T08:43:18.828Z,1052.00
2018-09-11T08:44:18.831Z,1056.00
2018-09-11T08:45:18.846Z,1068.00
2018-09-11T08:46:18.835Z,1072.00
2018-09-11T08:47:18.834Z,1052.00
2018-09-11T08:48:18.842Z,1064.00
2018-09-11T08:49:18.843Z,1064.00
2018-09-11T08:50:18.846Z,1016.00
2018-09-11T08:51:18.858Z,992.00
2018-09-11T08:52:18.925Z,976.00
2018-09-11T08:53:18.862Z,988.00
2018-09-11T08:54:18.860Z,960.00
2018-09-11T08:55:18.874Z,956.00
2018-09-11T08:56:18.865Z,920.00
2018-09-11T08:57:18.871Z,896.00
2018-09-11T08:58:18.875Z,908.00
2018-09-11T08:59:18.908Z,924.00
2018-09-11T09:00:18.885Z,940.00
2018-09-11T09:01:18.883Z,936.00
2018-09-11T09:02:18.890Z,924.00
2018-09-11T09:03:18.914Z,900.00
2018-09-11T09:04:18.900Z,880.00
2018-09-11T09:05:18.902Z,860.00
2018-09-11T09:06:18.902Z,828.00
2018-09-11T09:07:18.907Z,796.00
2018-09-11T09:08:18.914Z,792.00
2018-09-11T09:09:18.913Z,832.00
2018-09-11T09:10:18.919Z,772.00
2018-09-11T09:11:18.944Z,772.00
2018-09-11T09:12:18.930Z,760.00
2018-09-11T09:13:18.935Z,756.00
2018-09-11T09:14:18.950Z,788.00
2018-09-11T09:15:18.970Z,752.00
2018-09-11T09:16:18.934Z,772.00
2018-09-11T09:17:18.967Z,780.00
2018-09-11T09:18:18.943Z,804.00
2018-09-11T09:19:18.953Z,792.00
2018-09-11T09:20:18.954Z,776.00
2018-09-11T09:21:18.971Z,812.00
2018-09-11T09:22:18.954Z,800.00
2018-09-11T09:23:18.962Z,792.00
2018-09-11T09:24:18.964Z,780.00
2018-09-11T09:25:18.965Z,784.00
2018-09-11T09:26:18.968Z,760.00
2018-09-11T09:27:18.985Z,740.00
2018-09-11T09:28:18.973Z,764.00
2018-09-11T09:29:18.982Z,772.00
2018-09-11T09:30:18.980Z,788.00
2018-09-11T09:31:18.989Z,808.00
2018-09-11T09:32:18.996Z,764.00
2018-09-11T09:33:18.991Z,764.00
2018-09-11T09:34:19.001Z,752.00
2018-09-11T09:35:19.008Z,772.00
2018-09-11T09:36:19.051Z,800.00
2018-09-11T09:37:19.017Z,788.00
2018-09-11T09:38:19.015Z,760.00
2018-09-11T09:39:19.029Z,720.00
2018-09-11T09:40:19.022Z,880.00
2018-09-11T09:41:19.027Z,756.00
2018-09-11T09:42:19.031Z,796.00
2018-09-11T09:43:19.038Z,716.00
2018-09-11T09:44:19.047Z,748.00
2018-09-11T09:45:19.036Z,772.00
2018-09-11T09:46:19.043Z,748.00
2018-09-11T09:47:19.071Z,756.00
2018-09-11T09:48:19.095Z,756.00
2018-09-11T09:49:19.050Z,744.00
2018-09-11T09:50:19.061Z,744.00
2018-09-11T09:51:19.158Z,744.00
2018-09-11T09:52:19.075Z,696.00
2018-09-11T09:53:19.119Z,740.00
2018-09-11T09:54:19.083Z,736.00
2018-09-11T09:55:19.086Z,704.00
2018-09-11T09:56:19.078Z,740.00
2018-09-11T09:57:19.265Z,744.00
2018-09-11T09:58:19.127Z,736.00
2018-09-11T09:59:19.089Z,732.00
2018-09-11T10:00:19.166Z,740.00
2018-09-11T10:01:19.188Z,720.00
2018-09-11T10:02:19.168Z,720.00
2018-09-11T10:03:19.137Z,756.00
2018-09-11T10:04:19.165Z,724.00
2018-09-11T10:05:19.112Z,724.00
2018-09-11T10:06:19.255Z,724.00
2018-09-11T10:07:19.120Z,752.00
2018-09-11T10:08:19.123Z,720.00
2018-09-11T10:09:19.140Z,720.00
2018-09-11T10:10:19.227Z,736.00
2018-09-11T10:11:19.141Z,716.00
2018-09-11T10:12:19.160Z,744.00
2018-09-11T10:13:19.174Z,700.00
2018-09-11T10:14:19.157Z,804.00
2018-09-11T10:15:19.207Z,692.00
2018-09-11T10:16:19.174Z,660.00
2018-09-11T10:17:19.195Z,684.00
2018-09-11T10:18:19.183Z,640.00
2018-09-11T10:19:19.179Z,596.00
2018-09-11T10:20:19.235Z,556.00
2018-09-11T10:21:19.193Z,680.00
2018-09-11T10:22:19.231Z,668.00
2018-09-11T10:23:19.189Z,652.00
2018-09-11T10:24:19.219Z,624.00
2018-09-11T10:25:19.191Z,668.00
2018-09-11T10:26:19.306Z,640.00
2018-09-11T10:27:19.210Z,656.00
2018-09-11T10:28:19.204Z,648.00
2018-09-11T10:29:19.219Z,676.00
2018-09-11T10:30:19.230Z,700.00
2018-09-11T10:31:19.224Z,712.00
2018-09-11T10:32:19.242Z,736.00
2018-09-11T10:33:19.244Z,724.00
2018-09-11T10:34:19.244Z,772.00
2018-09-11T10:35:19.265Z,780.00
2018-09-11T10:36:19.237Z,756.00
2018-09-11T10:37:19.250Z,788.00
2018-09-11T10:38:19.243Z,788.00
2018-09-11T10:39:19.262Z,764.00
2018-09-11T10:40:19.250Z,736.00
2018-09-11T10:41:19.260Z,780.00
2018-09-11T10:42:19.282Z,780.00
2018-09-11T10:43:19.303Z,772.00
2018-09-11T10:44:19.296Z,772.00
2018-09-11T10:45:19.610Z,780.00
2018-09-11T10:46:19.302Z,796.00
2018-09-11T10:47:19.308Z,816.00
2018-09-11T10:48:19.294Z,724.00
2018-09-11T10:49:19.305Z,756.00
2018-09-11T10:50:19.311Z,728.00
2018-09-11T10:51:19.318Z,784.00
2018-09-11T10:52:19.332Z,732.00
2018-09-11T10:53:19.313Z,724.00
2018-09-11T10:54:19.319Z,740.00
2018-09-11T10:55:19.344Z,740.00
2018-09-11T10:56:19.330Z,748.00
2018-09-11T10:57:19.330Z,744.00
2018-09-11T10:58:19.377Z,740.00
2018-09-11T10:59:19.336Z,764.00
2018-09-11T11:00:19.354Z,804.00
2018-09-11T11:01:19.353Z,752.00
2018-09-11T11:02:19.389Z,788.00
2018-09-11T11:03:19.355Z,740.00
2018-09-11T11:04:19.356Z,748.00
2018-09-11T11:05:19.368Z,752.00
2018-09-11T11:06:19.373Z,744.00
2018-09-11T11:07:19.372Z,704.00
2018-09-11T11:08:19.377Z,756.00
2018-09-11T11:09:19.382Z,756.00
2018-09-11T11:10:19.401Z,744.00
2018-09-11T11:11:19.396Z,772.00
2018-09-11T11:12:19.397Z,780.00
2018-09-11T11:13:19.405Z,736.00
2018-09-11T11:14:19.413Z,736.00
2018-09-11T11:15:19.415Z,760.00
2018-09-11T11:16:19.438Z,748.00
2018-09-11T11:17:19.433Z,728.00
2018-09-11T11:18:19.430Z,728.00
2018-09-11T11:19:19.439Z,792.00
2018-09-11T11:20:19.455Z,772.00
2018-09-11T11:21:19.445Z,704.00
2018-09-11T11:22:19.453Z,716.00
2018-09-11T11:23:19.466Z,712.00
2018-09-11T11:24:19.483Z,728.00
2018-09-11T11:25:19.472Z,732.00
2018-09-11T11:26:19.480Z,732.00
2018-09-11T11:27:19.552Z,720.00
2018-09-11T11:28:19.477Z,708.00
2018-09-11T11:29:19.500Z,724.00
2018-09-11T11:30:19.489Z,640.00
2018-09-11T11:31:19.498Z,772.00
2018-09-11T11:32:19.516Z,776.00
2018-09-11T11:33:19.515Z,708.00
2018-09-11T11:34:19.507Z,720.00
2018-09-11T11:35:19.528Z,788.00
2018-09-11T11:36:19.712Z,732.00
2018-09-11T11:37:19.788Z,720.00
2018-09-11T11:38:19.526Z,688.00
2018-09-11T11:39:19.532Z,708.00
2018-09-11T11:40:19.549Z,716.00
2018-09-11T11:41:19.544Z,656.00
2018-09-11T11:42:19.643Z,684.00
2018-09-11T11:43:19.543Z,700.00
2018-09-11T11:44:19.572Z,696.00
2018-09-11T11:45:19.576Z,720.00
2018-09-11T11:46:19.560Z,716.00
2018-09-11T11:47:19.575Z,680.00
2018-09-11T11:48:19.646Z,692.00
2018-09-11T11:49:19.589Z,768.00
2018-09-11T11:50:19.583Z,740.00
2018-09-11T11:51:19.588Z,752.00
2018-09-11T11:52:19.606Z,696.00
2018-09-11T11:53:19.599Z,700.00
2018-09-11T11:54:19.606Z,708.00
2018-09-11T11:55:19.653Z,728.00
2018-09-11T11:56:19.613Z,704.00
2018-09-11T11:57:19.622Z,720.00
2018-09-11T11:58:19.641Z,740.00
2018-09-11T11:59:19.633Z,712.00
2018-09-11T12:00:19.702Z,712.00
2018-09-11T12:01:19.665Z,708.00
2018-09-11T12:02:19.654Z,704.00
2018-09-11T12:03:19.650Z,704.00
2018-09-11T12:04:19.656Z,760.00
2018-09-11T12:05:19.664Z,704.00
2018-09-11T12:06:19.665Z,684.00
2018-09-11T12:07:19.677Z,720.00
2018-09-11T12:08:19.680Z,716.00
2018-09-11T12:09:19.707Z,708.00
2018-09-11T12:10:19.692Z,716.00
2018-09-11T12:11:19.697Z,748.00
2018-09-11T12:12:19.773Z,724.00
2018-09-11T12:13:19.704Z,720.00
2018-09-11T12:14:19.711Z,728.00
2018-09-11T12:15:19.721Z,712.00
2018-09-11T12:16:19.792Z,716.00
2018-09-11T12:17:19.772Z,732.00
2018-09-11T12:18:19.732Z,720.00
2018-09-11T12:19:19.737Z,728.00
2018-09-11T12:20:19.744Z,724.00
2018-09-11T12:21:19.754Z,720.00
2018-09-11T12:22:19.750Z,732.00
2018-09-11T12:23:19.761Z,740.00
2018-09-11T12:24:19.766Z,716.00
2018-09-11T12:25:19.782Z,724.00
2018-09-11T12:26:19.840Z,720.00
2018-09-11T12:27:19.778Z,700.00
2018-09-11T12:28:19.794Z,760.00
2018-09-11T12:29:19.795Z,708.00
2018-09-11T12:30:19.804Z,704.00
2018-09-11T12:31:19.816Z,720.00
2018-09-11T12:32:19.821Z,700.00
2018-09-11T12:33:19.813Z,716.00
2018-09-11T12:34:19.829Z,704.00
2018-09-11T12:35:19.842Z,668.00
2018-09-11T12:36:19.829Z,704.00
2018-09-11T12:37:19.841Z,708.00
2018-09-11T12:38:19.846Z,696.00
2018-09-11T12:39:28.495Z,708.00
2018-09-11T12:41:13.290Z,688.00
2018-09-11T12:42:13.258Z,688.00
2018-09-11T12:43:13.271Z,716.00
2018-09-11T12:44:13.280Z,744.00
2018-09-11T12:45:13.279Z,696.00
2018-09-11T12:46:13.508Z,684.00
2018-09-11T12:47:13.598Z,716.00
2018-09-11T12:48:13.635Z,636.00
2018-09-11T12:49:13.310Z,764.00
2018-09-11T12:50:13.303Z,680.00
2018-09-11T12:51:13.325Z,696.00
2018-09-11T12:52:13.313Z,708.00
2018-09-11T12:53:13.326Z,688.00
2018-09-11T12:54:13.326Z,696.00
2018-09-11T12:55:13.335Z,676.00
2018-09-11T12:56:13.341Z,680.00
2018-09-11T12:57:13.337Z,668.00